sensor_id;sensor_type;location;lat;lon;timestamp;P1;durP1;ratioP1;P2;durP2;ratioP2
29430;SDS011;16404;49.902;10.074;2023-08-30T00:00:48;7.82;;;2.80;;
29430;SDS011;16404;49.902;10.074;2023-08-30T00:03:33;6.18;;;2.97;;
29430;SDS011;16404;49.902;10.074;2023-08-30T00:06:17;5.25;;;2.80;;
29430;SDS011;16404;49.902;10.074;2023-08-30T00:09:02;5.10;;;2.85;;
29430;SDS011;16404;49.902;10.074;2023-08-30T00:11:47;7.70;;;2.97;;
29430;SDS011;16404;49.902;10.074;2023-08-30T00:14:31;5.23;;;2.83;;
29430;SDS011;16404;49.902;10.074;2023-08-30T00:17:16;5.32;;;2.88;;
29430;SDS011;16404;49.902;10.074;2023-08-30T00:20:00;3.47;;;3.17;;
29430;SDS011;16404;49.902;10.074;2023-08-30T00:22:45;4.97;;;2.90;;
29430;SDS011;16404;49.902;10.074;2023-08-30T00:25:29;4.77;;;3.00;;
29430;SDS011;16404;49.902;10.074;2023-08-30T00:28:14;3.17;;;2.80;;
29430;SDS011;16404;49.902;10.074;2023-08-30T00:30:59;5.55;;;2.88;;
29430;SDS011;16404;49.902;10.074;2023-08-30T00:33:44;6.22;;;3.13;;
29430;SDS011;16404;49.902;10.074;2023-08-30T00:36:30;7.70;;;3.00;;
29430;SDS011;16404;49.902;10.074;2023-08-30T00:39:14;6.10;;;3.70;;
29430;SDS011;16404;49.902;10.074;2023-08-30T00:41:59;4.78;;;3.17;;
29430;SDS011;16404;49.902;10.074;2023-08-30T00:44:48;3.33;;;3.05;;
29430;SDS011;16404;49.902;10.074;2023-08-30T00:47:33;4.85;;;3.47;;
29430;SDS011;16404;49.902;10.074;2023-08-30T00:50:19;5.82;;;3.00;;
29430;SDS011;16404;49.902;10.074;2023-08-30T00:53:04;4.15;;;2.90;;
29430;SDS011;16404;49.902;10.074;2023-08-30T00:55:50;3.13;;;2.83;;
29430;SDS011;16404;49.902;10.074;2023-08-30T00:58:35;5.70;;;3.05;;
29430;SDS011;16404;49.902;10.074;2023-08-30T01:01:20;3.97;;;2.30;;
29430;SDS011;16404;49.902;10.074;2023-08-30T01:04:06;3.58;;;2.13;;
29430;SDS011;16404;49.902;10.074;2023-08-30T01:06:50;2.28;;;2.08;;
29430;SDS011;16404;49.902;10.074;2023-08-30T01:13:03;4.75;;;2.70;;
29430;SDS011;16404;49.902;10.074;2023-08-30T01:15:31;3.17;;;2.70;;
29430;SDS011;16404;49.902;10.074;2023-08-30T01:18:18;3.35;;;3.00;;
29430;SDS011;16404;49.902;10.074;2023-08-30T01:21:04;2.47;;;2.28;;
29430;SDS011;16404;49.902;10.074;2023-08-30T01:23:56;3.20;;;2.90;;
29430;SDS011;16404;49.902;10.074;2023-08-30T01:26:45;3.60;;;3.25;;
29430;SDS011;16404;49.902;10.074;2023-08-30T01:29:53;3.72;;;2.60;;
29430;SDS011;16404;49.902;10.074;2023-08-30T01:32:40;3.30;;;2.70;;
29430;SDS011;16404;49.902;10.074;2023-08-30T01:35:25;4.25;;;2.30;;
29430;SDS011;16404;49.902;10.074;2023-08-30T01:38:17;3.35;;;2.70;;
29430;SDS011;16404;49.902;10.074;2023-08-30T01:41:02;3.10;;;2.80;;
29430;SDS011;16404;49.902;10.074;2023-08-30T01:43:48;4.45;;;3.45;;
29430;SDS011;16404;49.902;10.074;2023-08-30T01:46:36;5.53;;;3.50;;
29430;SDS011;16404;49.902;10.074;2023-08-30T01:49:23;3.40;;;3.10;;
29430;SDS011;16404;49.902;10.074;2023-08-30T01:52:09;6.65;;;3.40;;
29430;SDS011;16404;49.902;10.074;2023-08-30T01:54:55;3.85;;;2.92;;
29430;SDS011;16404;49.902;10.074;2023-08-30T01:57:42;3.33;;;3.03;;
29430;SDS011;16404;49.902;10.074;2023-08-30T02:00:26;3.22;;;2.92;;
29430;SDS011;16404;49.902;10.074;2023-08-30T02:03:11;3.55;;;3.25;;
29430;SDS011;16404;49.902;10.074;2023-08-30T02:09:02;3.17;;;2.70;;
29430;SDS011;16404;49.902;10.074;2023-08-30T02:11:59;3.22;;;2.92;;
29430;SDS011;16404;49.902;10.074;2023-08-30T02:14:48;7.55;;;3.50;;
29430;SDS011;16404;49.902;10.074;2023-08-30T02:17:33;5.35;;;4.03;;
29430;SDS011;16404;49.902;10.074;2023-08-30T02:20:20;5.97;;;4.38;;
29430;SDS011;16404;49.902;10.074;2023-08-30T02:23:05;5.78;;;3.70;;
29430;SDS011;16404;49.902;10.074;2023-08-30T02:25:50;9.10;;;4.30;;
29430;SDS011;16404;49.902;10.074;2023-08-30T02:28:35;5.72;;;4.07;;
29430;SDS011;16404;49.902;10.074;2023-08-30T02:31:24;3.10;;;2.80;;
29430;SDS011;16404;49.902;10.074;2023-08-30T02:34:09;4.65;;;4.10;;
29430;SDS011;16404;49.902;10.074;2023-08-30T02:36:54;5.13;;;2.70;;
29430;SDS011;16404;49.902;10.074;2023-08-30T02:39:42;6.50;;;4.07;;
29430;SDS011;16404;49.902;10.074;2023-08-30T02:42:26;4.88;;;2.63;;
29430;SDS011;16404;49.902;10.074;2023-08-30T02:45:11;5.85;;;3.42;;
29430;SDS011;16404;49.902;10.074;2023-08-30T02:47:56;5.15;;;4.55;;
29430;SDS011;16404;49.902;10.074;2023-08-30T02:50:41;3.15;;;2.42;;
29430;SDS011;16404;49.902;10.074;2023-08-30T02:53:25;2.97;;;2.67;;
29430;SDS011;16404;49.902;10.074;2023-08-30T02:56:10;2.40;;;2.20;;
29430;SDS011;16404;49.902;10.074;2023-08-30T02:58:55;5.10;;;3.17;;
29430;SDS011;16404;49.902;10.074;2023-08-30T03:01:39;5.67;;;4.20;;
29430;SDS011;16404;49.902;10.074;2023-08-30T03:04:24;4.60;;;3.58;;
29430;SDS011;16404;49.902;10.074;2023-08-30T03:07:11;5.18;;;4.20;;
29430;SDS011;16404;49.902;10.074;2023-08-30T03:09:56;8.00;;;6.50;;
29430;SDS011;16404;49.902;10.074;2023-08-30T03:12:40;5.40;;;4.90;;
29430;SDS011;16404;49.902;10.074;2023-08-30T03:15:25;5.18;;;4.65;;
29430;SDS011;16404;49.902;10.074;2023-08-30T03:18:09;10.25;;;7.55;;
29430;SDS011;16404;49.902;10.074;2023-08-30T03:21:00;11.15;;;8.45;;
29430;SDS011;16404;49.902;10.074;2023-08-30T03:23:45;15.20;;;10.80;;
29430;SDS011;16404;49.902;10.074;2023-08-30T03:26:30;12.48;;;9.50;;
29430;SDS011;16404;49.902;10.074;2023-08-30T03:29:15;13.55;;;10.25;;
29430;SDS011;16404;49.902;10.074;2023-08-30T03:31:59;14.60;;;12.05;;
29430;SDS011;16404;49.902;10.074;2023-08-30T03:34:44;19.92;;;13.90;;
29430;SDS011;16404;49.902;10.074;2023-08-30T03:37:29;16.73;;;12.10;;
29430;SDS011;16404;49.902;10.074;2023-08-30T03:40:14;16.27;;;12.98;;
29430;SDS011;16404;49.902;10.074;2023-08-30T03:43:01;16.83;;;12.68;;
29430;SDS011;16404;49.902;10.074;2023-08-30T03:45:45;22.80;;;14.80;;
29430;SDS011;16404;49.902;10.074;2023-08-30T03:48:30;20.52;;;14.90;;
29430;SDS011;16404;49.902;10.074;2023-08-30T03:53:59;19.95;;;13.38;;
29430;SDS011;16404;49.902;10.074;2023-08-30T03:56:44;21.52;;;14.00;;
29430;SDS011;16404;49.902;10.074;2023-08-30T03:59:30;17.48;;;12.95;;
29430;SDS011;16404;49.902;10.074;2023-08-30T04:02:14;16.00;;;11.45;;
29430;SDS011;16404;49.902;10.074;2023-08-30T04:04:59;15.57;;;9.98;;
29430;SDS011;16404;49.902;10.074;2023-08-30T04:07:43;9.90;;;8.13;;
29430;SDS011;16404;49.902;10.074;2023-08-30T04:10:28;9.77;;;7.93;;
29430;SDS011;16404;49.902;10.074;2023-08-30T04:13:13;9.82;;;7.55;;
29430;SDS011;16404;49.902;10.074;2023-08-30T04:15:57;12.25;;;9.07;;
29430;SDS011;16404;49.902;10.074;2023-08-30T04:21:27;9.00;;;7.60;;
29430;SDS011;16404;49.902;10.074;2023-08-30T04:24:11;12.10;;;9.57;;
29430;SDS011;16404;49.902;10.074;2023-08-30T04:26:56;10.75;;;8.70;;
29430;SDS011;16404;49.902;10.074;2023-08-30T04:29:40;12.07;;;8.57;;
29430;SDS011;16404;49.902;10.074;2023-08-30T04:32:28;10.60;;;8.77;;
29430;SDS011;16404;49.902;10.074;2023-08-30T04:35:13;12.93;;;9.52;;
29430;SDS011;16404;49.902;10.074;2023-08-30T04:37:59;16.20;;;11.52;;
29430;SDS011;16404;49.902;10.074;2023-08-30T04:40:45;16.15;;;10.90;;
29430;SDS011;16404;49.902;10.074;2023-08-30T04:43:31;9.35;;;7.90;;
29430;SDS011;16404;49.902;10.074;2023-08-30T04:46:16;15.38;;;9.88;;
29430;SDS011;16404;49.902;10.074;2023-08-30T04:49:00;8.43;;;7.50;;
29430;SDS011;16404;49.902;10.074;2023-08-30T04:51:45;10.13;;;7.00;;
29430;SDS011;16404;49.902;10.074;2023-08-30T04:54:29;11.23;;;7.30;;
29430;SDS011;16404;49.902;10.074;2023-08-30T04:57:14;12.43;;;7.68;;
29430;SDS011;16404;49.902;10.074;2023-08-30T05:00:00;8.30;;;7.30;;
29430;SDS011;16404;49.902;10.074;2023-08-30T05:02:48;14.13;;;7.90;;
29430;SDS011;16404;49.902;10.074;2023-08-30T05:08:18;12.65;;;8.63;;
29430;SDS011;16404;49.902;10.074;2023-08-30T05:11:03;12.30;;;10.18;;
29430;SDS011;16404;49.902;10.074;2023-08-30T05:13:47;18.85;;;12.18;;
29430;SDS011;16404;49.902;10.074;2023-08-30T05:16:32;16.98;;;12.15;;
29430;SDS011;16404;49.902;10.074;2023-08-30T05:19:17;15.07;;;11.95;;
29430;SDS011;16404;49.902;10.074;2023-08-30T05:22:01;19.58;;;12.27;;
29430;SDS011;16404;49.902;10.074;2023-08-30T05:24:46;17.02;;;11.48;;
29430;SDS011;16404;49.902;10.074;2023-08-30T05:27:30;12.15;;;9.98;;
29430;SDS011;16404;49.902;10.074;2023-08-30T05:33:01;11.00;;;8.17;;
29430;SDS011;16404;49.902;10.074;2023-08-30T05:36:00;12.43;;;8.27;;
29430;SDS011;16404;49.902;10.074;2023-08-30T05:39:06;13.52;;;9.10;;
29430;SDS011;16404;49.902;10.074;2023-08-30T05:41:53;11.43;;;8.18;;
29430;SDS011;16404;49.902;10.074;2023-08-30T05:44:38;10.52;;;9.43;;
29430;SDS011;16404;49.902;10.074;2023-08-30T05:47:23;13.18;;;9.30;;
29430;SDS011;16404;49.902;10.074;2023-08-30T05:50:08;15.32;;;9.07;;
29430;SDS011;16404;49.902;10.074;2023-08-30T05:52:53;12.63;;;9.30;;
29430;SDS011;16404;49.902;10.074;2023-08-30T05:55:37;11.93;;;9.10;;
29430;SDS011;16404;49.902;10.074;2023-08-30T05:58:23;11.32;;;8.05;;
29430;SDS011;16404;49.902;10.074;2023-08-30T06:01:07;13.52;;;9.18;;
29430;SDS011;16404;49.902;10.074;2023-08-30T06:03:52;11.32;;;9.50;;
29430;SDS011;16404;49.902;10.074;2023-08-30T06:06:37;14.32;;;10.10;;
29430;SDS011;16404;49.902;10.074;2023-08-30T06:09:21;15.25;;;11.15;;
29430;SDS011;16404;49.902;10.074;2023-08-30T06:12:06;12.57;;;10.85;;
29430;SDS011;16404;49.902;10.074;2023-08-30T06:14:51;12.73;;;10.63;;
29430;SDS011;16404;49.902;10.074;2023-08-30T06:17:36;13.98;;;11.15;;
29430;SDS011;16404;49.902;10.074;2023-08-30T06:20:20;16.23;;;10.60;;
29430;SDS011;16404;49.902;10.074;2023-08-30T06:23:05;16.40;;;10.40;;
29430;SDS011;16404;49.902;10.074;2023-08-30T06:25:56;12.80;;;9.05;;
29430;SDS011;16404;49.902;10.074;2023-08-30T06:28:40;14.68;;;9.73;;
29430;SDS011;16404;49.902;10.074;2023-08-30T06:31:25;12.32;;;9.15;;
29430;SDS011;16404;49.902;10.074;2023-08-30T06:34:11;10.45;;;9.32;;
29430;SDS011;16404;49.902;10.074;2023-08-30T06:36:56;11.23;;;9.38;;
29430;SDS011;16404;49.902;10.074;2023-08-30T06:39:40;11.35;;;8.15;;
29430;SDS011;16404;49.902;10.074;2023-08-30T06:42:25;11.07;;;8.60;;
29430;SDS011;16404;49.902;10.074;2023-08-30T06:45:10;12.88;;;9.15;;
29430;SDS011;16404;49.902;10.074;2023-08-30T06:47:55;11.18;;;8.48;;
29430;SDS011;16404;49.902;10.074;2023-08-30T06:50:39;12.30;;;7.82;;
29430;SDS011;16404;49.902;10.074;2023-08-30T06:53:25;11.63;;;8.73;;
29430;SDS011;16404;49.902;10.074;2023-08-30T06:56:10;11.10;;;8.50;;
29430;SDS011;16404;49.902;10.074;2023-08-30T06:58:54;10.37;;;8.03;;
29430;SDS011;16404;49.902;10.074;2023-08-30T07:01:39;9.25;;;8.25;;
29430;SDS011;16404;49.902;10.074;2023-08-30T07:04:24;11.80;;;8.50;;
29430;SDS011;16404;49.902;10.074;2023-08-30T07:07:08;12.75;;;8.77;;
29430;SDS011;16404;49.902;10.074;2023-08-30T07:09:53;9.63;;;8.45;;
29430;SDS011;16404;49.902;10.074;2023-08-30T07:12:37;11.90;;;8.95;;
29430;SDS011;16404;49.902;10.074;2023-08-30T07:15:23;9.55;;;8.55;;
29430;SDS011;16404;49.902;10.074;2023-08-30T07:18:08;14.50;;;8.80;;
29430;SDS011;16404;49.902;10.074;2023-08-30T07:20:53;12.23;;;8.90;;
29430;SDS011;16404;49.902;10.074;2023-08-30T07:23:37;9.50;;;8.30;;
29430;SDS011;16404;49.902;10.074;2023-08-30T07:26:22;14.48;;;8.85;;
29430;SDS011;16404;49.902;10.074;2023-08-30T07:29:08;11.10;;;8.80;;
29430;SDS011;16404;49.902;10.074;2023-08-30T07:31:53;13.55;;;8.40;;
29430;SDS011;16404;49.902;10.074;2023-08-30T07:34:38;9.18;;;7.65;;
29430;SDS011;16404;49.902;10.074;2023-08-30T07:37:22;7.70;;;6.90;;
29430;SDS011;16404;49.902;10.074;2023-08-30T07:40:07;10.40;;;7.70;;
29430;SDS011;16404;49.902;10.074;2023-08-30T07:42:52;16.17;;;8.93;;
29430;SDS011;16404;49.902;10.074;2023-08-30T07:45:37;11.20;;;8.82;;
29430;SDS011;16404;49.902;10.074;2023-08-30T07:48:21;14.82;;;9.30;;
29430;SDS011;16404;49.902;10.074;2023-08-30T07:51:06;15.23;;;9.35;;
29430;SDS011;16404;49.902;10.074;2023-08-30T07:53:50;12.73;;;9.35;;
29430;SDS011;16404;49.902;10.074;2023-08-30T07:56:35;14.07;;;9.93;;
29430;SDS011;16404;49.902;10.074;2023-08-30T07:59:19;13.32;;;9.68;;
29430;SDS011;16404;49.902;10.074;2023-08-30T08:02:04;13.65;;;9.68;;
29430;SDS011;16404;49.902;10.074;2023-08-30T08:04:52;11.88;;;8.95;;
29430;SDS011;16404;49.902;10.074;2023-08-30T08:07:41;19.00;;;10.98;;
29430;SDS011;16404;49.902;10.074;2023-08-30T08:10:26;13.27;;;10.15;;
29430;SDS011;16404;49.902;10.074;2023-08-30T08:13:11;12.75;;;10.20;;
29430;SDS011;16404;49.902;10.074;2023-08-30T08:15:56;11.48;;;9.75;;
29430;SDS011;16404;49.902;10.074;2023-08-30T08:18:41;11.90;;;9.85;;
29430;SDS011;16404;49.902;10.074;2023-08-30T08:21:26;13.27;;;9.52;;
29430;SDS011;16404;49.902;10.074;2023-08-30T08:24:11;18.10;;;10.45;;
29430;SDS011;16404;49.902;10.074;2023-08-30T08:26:55;12.57;;;9.53;;
29430;SDS011;16404;49.902;10.074;2023-08-30T08:29:40;14.32;;;10.73;;
29430;SDS011;16404;49.902;10.074;2023-08-30T08:32:24;15.57;;;10.73;;
29430;SDS011;16404;49.902;10.074;2023-08-30T08:35:09;15.27;;;10.90;;
29430;SDS011;16404;49.902;10.074;2023-08-30T08:37:54;15.15;;;11.57;;
29430;SDS011;16404;49.902;10.074;2023-08-30T08:40:38;15.10;;;11.95;;
29430;SDS011;16404;49.902;10.074;2023-08-30T08:43:23;15.05;;;10.55;;
29430;SDS011;16404;49.902;10.074;2023-08-30T08:46:08;13.10;;;11.45;;
29430;SDS011;16404;49.902;10.074;2023-08-30T08:48:55;13.32;;;10.27;;
29430;SDS011;16404;49.902;10.074;2023-08-30T08:51:41;14.30;;;10.50;;
29430;SDS011;16404;49.902;10.074;2023-08-30T08:54:26;13.65;;;10.98;;
29430;SDS011;16404;49.902;10.074;2023-08-30T08:57:11;15.30;;;11.30;;
29430;SDS011;16404;49.902;10.074;2023-08-30T08:59:56;15.38;;;10.95;;
29430;SDS011;16404;49.902;10.074;2023-08-30T09:02:41;17.98;;;11.90;;
29430;SDS011;16404;49.902;10.074;2023-08-30T09:08:11;17.08;;;12.52;;
29430;SDS011;16404;49.902;10.074;2023-08-30T09:10:56;12.70;;;11.27;;
29430;SDS011;16404;49.902;10.074;2023-08-30T09:13:44;12.32;;;10.75;;
29430;SDS011;16404;49.902;10.074;2023-08-30T09:16:28;17.67;;;11.25;;
29430;SDS011;16404;49.902;10.074;2023-08-30T09:19:19;15.95;;;11.25;;
29430;SDS011;16404;49.902;10.074;2023-08-30T09:22:04;12.88;;;11.18;;
29430;SDS011;16404;49.902;10.074;2023-08-30T09:24:49;14.07;;;10.15;;
29430;SDS011;16404;49.902;10.074;2023-08-30T09:27:34;15.60;;;10.57;;
29430;SDS011;16404;49.902;10.074;2023-08-30T09:30:21;11.02;;;9.85;;
29430;SDS011;16404;49.902;10.074;2023-08-30T09:33:06;11.55;;;9.23;;
29430;SDS011;16404;49.902;10.074;2023-08-30T09:35:50;12.65;;;9.80;;
29430;SDS011;16404;49.902;10.074;2023-08-30T09:38:36;12.60;;;10.18;;
29430;SDS011;16404;49.902;10.074;2023-08-30T09:41:21;12.30;;;9.63;;
29430;SDS011;16404;49.902;10.074;2023-08-30T09:44:06;12.35;;;8.93;;
29430;SDS011;16404;49.902;10.074;2023-08-30T09:47:13;13.07;;;8.02;;
29430;SDS011;16404;49.902;10.074;2023-08-30T09:49:59;11.77;;;7.63;;
29430;SDS011;16404;49.902;10.074;2023-08-30T09:52:48;12.98;;;9.27;;
29430;SDS011;16404;49.902;10.074;2023-08-30T09:55:35;11.45;;;9.02;;
29430;SDS011;16404;49.902;10.074;2023-08-30T10:01:07;15.00;;;9.85;;
29430;SDS011;16404;49.902;10.074;2023-08-30T10:06:38;10.53;;;7.97;;
29430;SDS011;16404;49.902;10.074;2023-08-30T10:09:23;11.88;;;8.90;;
29430;SDS011;16404;49.902;10.074;2023-08-30T10:12:08;11.98;;;7.93;;
29430;SDS011;16404;49.902;10.074;2023-08-30T10:14:54;10.63;;;8.60;;
29430;SDS011;16404;49.902;10.074;2023-08-30T10:17:40;12.75;;;8.30;;
29430;SDS011;16404;49.902;10.074;2023-08-30T10:20:28;14.80;;;10.15;;
29430;SDS011;16404;49.902;10.074;2023-08-30T10:23:13;11.57;;;9.60;;
29430;SDS011;16404;49.902;10.074;2023-08-30T10:26:00;14.35;;;10.98;;
29430;SDS011;16404;49.902;10.074;2023-08-30T10:28:47;12.38;;;9.63;;
29430;SDS011;16404;49.902;10.074;2023-08-30T10:31:31;11.68;;;9.23;;
29430;SDS011;16404;49.902;10.074;2023-08-30T10:34:16;14.10;;;10.35;;
29430;SDS011;16404;49.902;10.074;2023-08-30T10:37:03;15.43;;;9.30;;
29430;SDS011;16404;49.902;10.074;2023-08-30T10:39:51;14.50;;;10.45;;
29430;SDS011;16404;49.902;10.074;2023-08-30T10:42:35;12.15;;;9.90;;
29430;SDS011;16404;49.902;10.074;2023-08-30T10:45:22;12.63;;;9.43;;
29430;SDS011;16404;49.902;10.074;2023-08-30T10:48:08;14.43;;;9.65;;
29430;SDS011;16404;49.902;10.074;2023-08-30T10:50:53;11.20;;;9.25;;
29430;SDS011;16404;49.902;10.074;2023-08-30T10:53:37;13.95;;;9.85;;
29430;SDS011;16404;49.902;10.074;2023-08-30T10:56:26;14.32;;;9.10;;
29430;SDS011;16404;49.902;10.074;2023-08-30T10:59:18;14.55;;;8.98;;
29430;SDS011;16404;49.902;10.074;2023-08-30T11:02:04;14.45;;;10.80;;
29430;SDS011;16404;49.902;10.074;2023-08-30T11:04:49;16.25;;;9.57;;
29430;SDS011;16404;49.902;10.074;2023-08-30T11:07:34;11.75;;;9.23;;
29430;SDS011;16404;49.902;10.074;2023-08-30T11:10:19;8.90;;;7.68;;
29430;SDS011;16404;49.902;10.074;2023-08-30T11:13:04;9.43;;;7.28;;
29430;SDS011;16404;49.902;10.074;2023-08-30T11:15:50;9.95;;;7.80;;
29430;SDS011;16404;49.902;10.074;2023-08-30T11:18:37;10.10;;;6.90;;
29430;SDS011;16404;49.902;10.074;2023-08-30T11:21:26;9.60;;;7.10;;
29430;SDS011;16404;49.902;10.074;2023-08-30T11:24:11;9.50;;;7.63;;
29430;SDS011;16404;49.902;10.074;2023-08-30T11:26:56;7.97;;;5.72;;
29430;SDS011;16404;49.902;10.074;2023-08-30T11:29:40;6.43;;;5.10;;
29430;SDS011;16404;49.902;10.074;2023-08-30T11:32:25;9.48;;;5.90;;
29430;SDS011;16404;49.902;10.074;2023-08-30T11:35:09;9.75;;;5.60;;
29430;SDS011;16404;49.902;10.074;2023-08-30T11:37:54;8.20;;;5.45;;
29430;SDS011;16404;49.902;10.074;2023-08-30T11:40:39;5.45;;;4.30;;
29430;SDS011;16404;49.902;10.074;2023-08-30T11:43:24;7.07;;;5.00;;
29430;SDS011;16404;49.902;10.074;2023-08-30T11:46:08;5.00;;;4.20;;
29430;SDS011;16404;49.902;10.074;2023-08-30T11:48:53;6.43;;;4.80;;
29430;SDS011;16404;49.902;10.074;2023-08-30T11:51:37;7.63;;;4.47;;
29430;SDS011;16404;49.902;10.074;2023-08-30T11:54:25;5.93;;;4.22;;
29430;SDS011;16404;49.902;10.074;2023-08-30T11:57:10;4.07;;;3.67;;
29430;SDS011;16404;49.902;10.074;2023-08-30T11:59:55;4.85;;;3.25;;
29430;SDS011;16404;49.902;10.074;2023-08-30T12:02:40;4.70;;;3.60;;
29430;SDS011;16404;49.902;10.074;2023-08-30T12:05:24;5.30;;;4.03;;
29430;SDS011;16404;49.902;10.074;2023-08-30T12:08:17;7.55;;;4.03;;
29430;SDS011;16404;49.902;10.074;2023-08-30T12:11:02;5.15;;;3.72;;
29430;SDS011;16404;49.902;10.074;2023-08-30T12:13:47;4.22;;;3.83;;
29430;SDS011;16404;49.902;10.074;2023-08-30T12:16:32;5.15;;;3.92;;
29430;SDS011;16404;49.902;10.074;2023-08-30T12:19:16;4.65;;;3.83;;
29430;SDS011;16404;49.902;10.074;2023-08-30T12:22:05;3.90;;;3.40;;
29430;SDS011;16404;49.902;10.074;2023-08-30T12:24:51;4.00;;;3.58;;
29430;SDS011;16404;49.902;10.074;2023-08-30T12:30:23;5.88;;;3.67;;
29430;SDS011;16404;49.902;10.074;2023-08-30T12:33:07;5.05;;;3.78;;
29430;SDS011;16404;49.902;10.074;2023-08-30T12:35:52;4.53;;;3.20;;
29430;SDS011;16404;49.902;10.074;2023-08-30T12:38:37;5.90;;;4.10;;
29430;SDS011;16404;49.902;10.074;2023-08-30T12:41:22;6.25;;;3.38;;
29430;SDS011;16404;49.902;10.074;2023-08-30T12:44:07;4.38;;;3.60;;
29430;SDS011;16404;49.902;10.074;2023-08-30T12:46:51;6.57;;;4.00;;
29430;SDS011;16404;49.902;10.074;2023-08-30T12:49:36;8.18;;;3.50;;
29430;SDS011;16404;49.902;10.074;2023-08-30T12:52:20;3.58;;;3.20;;
29430;SDS011;16404;49.902;10.074;2023-08-30T12:55:05;5.03;;;3.60;;
29430;SDS011;16404;49.902;10.074;2023-08-30T12:57:50;4.80;;;4.00;;
29430;SDS011;16404;49.902;10.074;2023-08-30T13:00:35;4.55;;;4.03;;
29430;SDS011;16404;49.902;10.074;2023-08-30T13:03:19;5.75;;;4.22;;
29430;SDS011;16404;49.902;10.074;2023-08-30T13:06:04;4.85;;;4.03;;
29430;SDS011;16404;49.902;10.074;2023-08-30T13:08:49;4.57;;;4.18;;
29430;SDS011;16404;49.902;10.074;2023-08-30T13:11:33;4.45;;;3.83;;
29430;SDS011;16404;49.902;10.074;2023-08-30T13:14:18;7.82;;;5.10;;
29430;SDS011;16404;49.902;10.074;2023-08-30T13:17:02;6.10;;;4.50;;
29430;SDS011;16404;49.902;10.074;2023-08-30T13:19:47;6.70;;;5.13;;
29430;SDS011;16404;49.902;10.074;2023-08-30T13:22:31;7.43;;;4.72;;
29430;SDS011;16404;49.902;10.074;2023-08-30T13:25:16;12.15;;;8.40;;
29430;SDS011;16404;49.902;10.074;2023-08-30T13:28:02;3.75;;;3.22;;
29430;SDS011;16404;49.902;10.074;2023-08-30T13:30:47;3.08;;;2.65;;
29430;SDS011;16404;49.902;10.074;2023-08-30T13:33:33;2.85;;;2.50;;
29430;SDS011;16404;49.902;10.074;2023-08-30T13:36:18;3.00;;;2.60;;
29430;SDS011;16404;49.902;10.074;2023-08-30T13:39:03;4.40;;;2.50;;
29430;SDS011;16404;49.902;10.074;2023-08-30T13:41:47;2.85;;;2.55;;
29430;SDS011;16404;49.902;10.074;2023-08-30T13:44:32;2.63;;;2.42;;
29430;SDS011;16404;49.902;10.074;2023-08-30T13:47:19;5.05;;;2.40;;
29430;SDS011;16404;49.902;10.074;2023-08-30T13:50:03;2.50;;;2.30;;
29430;SDS011;16404;49.902;10.074;2023-08-30T13:52:49;3.20;;;2.30;;
29430;SDS011;16404;49.902;10.074;2023-08-30T13:55:33;3.28;;;2.70;;
29430;SDS011;16404;49.902;10.074;2023-08-30T13:58:18;3.17;;;2.33;;
29430;SDS011;16404;49.902;10.074;2023-08-30T14:01:02;2.95;;;2.65;;
29430;SDS011;16404;49.902;10.074;2023-08-30T14:03:47;2.65;;;2.42;;
29430;SDS011;16404;49.902;10.074;2023-08-30T14:06:31;4.03;;;3.40;;
29430;SDS011;16404;49.902;10.074;2023-08-30T14:09:16;7.57;;;3.28;;
29430;SDS011;16404;49.902;10.074;2023-08-30T14:12:01;3.40;;;2.80;;
29430;SDS011;16404;49.902;10.074;2023-08-30T14:14:47;3.08;;;2.80;;
29430;SDS011;16404;49.902;10.074;2023-08-30T14:17:32;2.85;;;2.65;;
29430;SDS011;16404;49.902;10.074;2023-08-30T14:20:16;3.45;;;2.95;;
29430;SDS011;16404;49.902;10.074;2023-08-30T14:23:01;2.47;;;2.28;;
29430;SDS011;16404;49.902;10.074;2023-08-30T14:25:46;3.33;;;3.03;;
29430;SDS011;16404;49.902;10.074;2023-08-30T14:28:39;4.00;;;2.72;;
29430;SDS011;16404;49.902;10.074;2023-08-30T14:31:23;6.00;;;2.88;;
29430;SDS011;16404;49.902;10.074;2023-08-30T14:34:09;3.95;;;2.67;;
29430;SDS011;16404;49.902;10.074;2023-08-30T14:36:54;3.83;;;2.78;;
29430;SDS011;16404;49.902;10.074;2023-08-30T14:39:39;3.40;;;2.83;;
29430;SDS011;16404;49.902;10.074;2023-08-30T14:42:23;4.75;;;2.90;;
29430;SDS011;16404;49.902;10.074;2023-08-30T14:45:08;4.25;;;2.95;;
29430;SDS011;16404;49.902;10.074;2023-08-30T14:47:53;3.97;;;3.30;;
29430;SDS011;16404;49.902;10.074;2023-08-30T14:50:37;3.97;;;3.30;;
29430;SDS011;16404;49.902;10.074;2023-08-30T14:53:22;3.53;;;3.13;;
29430;SDS011;16404;49.902;10.074;2023-08-30T14:56:06;3.63;;;3.25;;
29430;SDS011;16404;49.902;10.074;2023-08-30T14:58:51;3.70;;;3.40;;
29430;SDS011;16404;49.902;10.074;2023-08-30T15:01:35;4.00;;;3.42;;
29430;SDS011;16404;49.902;10.074;2023-08-30T15:04:20;4.18;;;3.50;;
29430;SDS011;16404;49.902;10.074;2023-08-30T15:07:05;3.97;;;3.47;;
29430;SDS011;16404;49.902;10.074;2023-08-30T15:09:49;5.35;;;3.75;;
29430;SDS011;16404;49.902;10.074;2023-08-30T15:12:34;4.32;;;3.90;;
29430;SDS011;16404;49.902;10.074;2023-08-30T15:15:18;5.30;;;4.68;;
29430;SDS011;16404;49.902;10.074;2023-08-30T15:18:03;7.90;;;4.70;;
29430;SDS011;16404;49.902;10.074;2023-08-30T15:20:47;7.43;;;4.78;;
29430;SDS011;16404;49.902;10.074;2023-08-30T15:23:36;5.55;;;4.20;;
29430;SDS011;16404;49.902;10.074;2023-08-30T15:26:21;3.60;;;3.30;;
29430;SDS011;16404;49.902;10.074;2023-08-30T15:29:05;3.78;;;3.38;;
29430;SDS011;16404;49.902;10.074;2023-08-30T15:31:50;4.78;;;3.40;;
29430;SDS011;16404;49.902;10.074;2023-08-30T15:34:37;3.97;;;3.05;;
29430;SDS011;16404;49.902;10.074;2023-08-30T15:37:22;3.65;;;2.70;;
29430;SDS011;16404;49.902;10.074;2023-08-30T15:40:07;3.55;;;2.78;;
29430;SDS011;16404;49.902;10.074;2023-08-30T15:42:53;4.45;;;3.28;;
29430;SDS011;16404;49.902;10.074;2023-08-30T15:45:38;4.13;;;2.80;;
29430;SDS011;16404;49.902;10.074;2023-08-30T15:48:22;3.47;;;2.90;;
29430;SDS011;16404;49.902;10.074;2023-08-30T15:51:07;2.72;;;2.40;;
29430;SDS011;16404;49.902;10.074;2023-08-30T15:53:52;2.22;;;2.00;;
29430;SDS011;16404;49.902;10.074;2023-08-30T15:56:36;2.88;;;1.85;;
29430;SDS011;16404;49.902;10.074;2023-08-30T15:59:21;2.53;;;2.33;;
29430;SDS011;16404;49.902;10.074;2023-08-30T16:02:05;2.28;;;1.92;;
29430;SDS011;16404;49.902;10.074;2023-08-30T16:04:50;3.15;;;2.40;;
29430;SDS011;16404;49.902;10.074;2023-08-30T16:07:34;3.53;;;2.03;;
29430;SDS011;16404;49.902;10.074;2023-08-30T16:10:19;5.95;;;2.20;;
29430;SDS011;16404;49.902;10.074;2023-08-30T16:15:48;3.00;;;2.35;;
29430;SDS011;16404;49.902;10.074;2023-08-30T16:18:33;3.75;;;2.45;;
29430;SDS011;16404;49.902;10.074;2023-08-30T16:21:18;3.53;;;2.50;;
29430;SDS011;16404;49.902;10.074;2023-08-30T16:24:02;2.50;;;2.30;;
29430;SDS011;16404;49.902;10.074;2023-08-30T16:26:48;3.55;;;2.47;;
29430;SDS011;16404;49.902;10.074;2023-08-30T16:29:37;3.10;;;2.47;;
29430;SDS011;16404;49.902;10.074;2023-08-30T16:32:22;2.92;;;2.70;;
29430;SDS011;16404;49.902;10.074;2023-08-30T16:35:06;6.60;;;2.80;;
29430;SDS011;16404;49.902;10.074;2023-08-30T16:37:52;2.58;;;2.38;;
29430;SDS011;16404;49.902;10.074;2023-08-30T16:40:36;3.47;;;2.50;;
29430;SDS011;16404;49.902;10.074;2023-08-30T16:43:21;4.18;;;2.72;;